createdAt,value
2022-09-20T00:01:24.016Z,8.29
2022-09-20T00:03:55.296Z,8.43
2022-09-20T00:06:23.716Z,8.23
2022-09-20T00:08:50.410Z,8.11
2022-09-20T00:11:24.966Z,7.83
2022-09-20T00:13:53.107Z,8.59
2022-09-20T00:16:25.433Z,7.60
2022-09-20T00:18:53.119Z,8.44
2022-09-20T00:21:21.503Z,8.42
2022-09-20T00:23:48.104Z,8.62
2022-09-20T00:26:14.846Z,8.08
2022-09-20T00:28:41.845Z,8.45
2022-09-20T00:31:08.464Z,8.00
2022-09-20T00:33:53.646Z,8.33
2022-09-20T00:36:20.240Z,8.72
2022-09-20T00:38:46.866Z,7.73
2022-09-20T00:41:13.525Z,7.46
2022-09-20T00:43:41.809Z,8.34
2022-09-20T00:46:36.615Z,8.67
2022-09-20T00:49:26.234Z,8.22
2022-09-20T00:51:55.842Z,8.56
2022-09-20T00:54:22.508Z,8.28
2022-09-20T00:56:49.250Z,8.51
2022-09-20T00:59:21.920Z,8.14
2022-09-20T01:02:15.426Z,8.28
2022-09-20T01:04:42.604Z,8.16
2022-09-20T01:07:09.800Z,8.62
2022-09-20T01:09:36.454Z,8.21
2022-09-20T01:12:08.447Z,8.32
2022-09-20T01:14:35.014Z,8.14
2022-09-20T01:17:04.119Z,8.46
2022-09-20T01:19:42.785Z,8.63
2022-09-20T01:22:16.152Z,8.02
2022-09-20T01:25:03.316Z,8.42
2022-09-20T01:27:33.514Z,8.66
2022-09-20T01:30:03.858Z,8.63
2022-09-20T01:32:53.631Z,8.21
2022-09-20T01:35:21.383Z,8.23
2022-09-20T01:38:11.505Z,8.63
2022-09-20T01:40:59.232Z,8.39
2022-09-20T01:43:47.373Z,8.56
2022-09-20T01:46:32.525Z,8.20
2022-09-20T01:49:28.496Z,8.60
2022-09-20T01:52:16.665Z,8.57
2022-09-20T01:55:15.957Z,8.60
2022-09-20T01:58:35.025Z,8.37
2022-09-20T02:01:32.422Z,8.60
2022-09-20T02:04:28.940Z,8.62
2022-09-20T02:07:01.778Z,8.59
2022-09-20T02:09:46.942Z,8.58
2022-09-20T02:12:43.894Z,8.55
2022-09-20T02:16:07.891Z,8.53
2022-09-20T02:18:43.168Z,8.53
2022-09-20T02:21:16.845Z,8.34
2022-09-20T02:24:10.644Z,8.32
2022-09-20T02:27:02.582Z,8.23
2022-09-20T02:29:47.863Z,8.49
2022-09-20T02:32:51.947Z,8.52
2022-09-20T02:35:39.317Z,8.51
2022-09-20T02:38:43.195Z,8.52
2022-09-20T02:41:09.652Z,8.53
2022-09-20T02:43:51.549Z,8.50
2022-09-20T02:46:26.322Z,8.36
2022-09-20T02:49:08.789Z,8.48
2022-09-20T02:51:43.955Z,8.40
2022-09-20T02:54:13.862Z,8.45
2022-09-20T02:57:10.801Z,8.05
2022-09-20T02:59:49.400Z,8.46
2022-09-20T03:02:45.396Z,8.46
2022-09-20T03:05:36.316Z,8.22
2022-09-20T03:08:32.762Z,8.46
2022-09-20T03:11:18.062Z,8.47
2022-09-20T03:13:53.721Z,8.48
2022-09-20T03:16:47.584Z,8.48
2022-09-20T03:19:34.047Z,8.04
2022-09-20T03:22:00.994Z,8.49
2022-09-20T03:24:52.555Z,8.50
2022-09-20T03:27:41.543Z,8.50
2022-09-20T03:30:40.334Z,8.50
2022-09-20T03:33:18.458Z,7.96
2022-09-20T03:36:04.177Z,7.86
2022-09-20T03:38:55.225Z,8.51
2022-09-20T03:41:34.248Z,8.49
2022-09-20T03:44:34.500Z,7.63
2022-09-20T03:47:08.946Z,7.24
2022-09-20T03:50:09.886Z,8.54
2022-09-20T03:53:00.872Z,8.17
2022-09-20T03:56:00.893Z,8.53
2022-09-20T03:58:46.021Z,8.52
2022-09-20T04:01:31.083Z,7.88
2022-09-20T04:04:09.403Z,7.81
2022-09-20T04:06:35.881Z,8.55
2022-09-20T04:09:14.712Z,8.55
2022-09-20T04:11:46.330Z,6.22
2022-09-20T04:14:34.656Z,8.59
2022-09-20T04:17:06.328Z,8.03
2022-09-20T04:19:46.256Z,8.01
2022-09-20T04:22:12.900Z,8.34
2022-09-20T04:24:56.632Z,8.18
2022-09-20T04:27:29.398Z,8.60
2022-09-20T04:30:15.041Z,8.00
2022-09-20T04:32:44.599Z,8.62
2022-09-20T04:35:44.406Z,8.60
2022-09-20T04:38:13.197Z,7.99
2022-09-20T04:41:12.098Z,8.50
2022-09-20T04:44:21.906Z,8.48
2022-09-20T04:47:08.250Z,8.46
2022-09-20T04:49:59.496Z,8.41
2022-09-20T04:52:41.306Z,8.41
2022-09-20T04:55:26.962Z,8.01
2022-09-20T04:58:19.428Z,8.40
2022-09-20T05:01:07.054Z,8.38
2022-09-20T05:03:45.665Z,8.37
2022-09-20T05:06:36.853Z,8.39
2022-09-20T05:09:13.731Z,8.39
2022-09-20T05:12:02.495Z,8.38
2022-09-20T05:14:40.989Z,8.41
2022-09-20T05:17:14.800Z,8.43
2022-09-20T05:20:02.706Z,7.82
2022-09-20T05:22:53.820Z,8.43
2022-09-20T05:25:48.292Z,8.45
2022-09-20T05:28:28.718Z,8.19
2022-09-20T05:31:28.623Z,7.92
2022-09-20T05:34:45.976Z,8.44
2022-09-20T05:37:22.577Z,8.23
2022-09-20T05:40:18.270Z,8.06
2022-09-20T05:43:07.497Z,8.14
2022-09-20T05:45:40.072Z,8.45
2022-09-20T05:48:15.055Z,6.96
2022-09-20T05:51:20.598Z,8.49
2022-09-20T05:53:49.817Z,8.52
2022-09-20T05:56:34.414Z,8.56
2022-09-20T05:59:16.870Z,8.63
2022-09-20T06:02:01.625Z,8.67
2022-09-20T06:05:15.005Z,8.72
2022-09-20T06:08:03.834Z,8.78
2022-09-20T06:10:54.662Z,8.27
2022-09-20T06:13:36.398Z,8.77
2022-09-20T06:16:07.888Z,8.71
2022-09-20T06:19:03.170Z,8.44
2022-09-20T06:21:55.395Z,8.86
2022-09-20T06:24:44.760Z,8.90
2022-09-20T06:27:14.468Z,8.58
2022-09-20T06:29:43.742Z,8.68
2022-09-20T06:32:10.366Z,8.55
2022-09-20T06:34:36.974Z,8.76
2022-09-20T06:37:34.276Z,8.89
2022-09-20T06:40:46.961Z,8.87
2022-09-20T06:43:14.598Z,8.72
2022-09-20T06:45:42.634Z,8.37
2022-09-20T06:48:13.148Z,8.61
2022-09-20T06:50:40.037Z,8.43
2022-09-20T06:53:07.149Z,8.19
2022-09-20T06:55:37.506Z,8.96
2022-09-20T06:58:04.214Z,8.58
2022-09-20T07:00:30.868Z,8.78
2022-09-20T07:02:57.443Z,8.76
2022-09-20T07:05:26.609Z,7.66
2022-09-20T07:07:57.682Z,8.37
2022-09-20T07:10:25.438Z,7.89
2022-09-20T07:12:52.006Z,9.08
2022-09-20T07:15:22.867Z,9.04
2022-09-20T07:17:49.471Z,9.39
2022-09-20T07:20:47.124Z,9.49
2022-09-20T07:23:15.780Z,9.03
2022-09-20T07:25:42.339Z,9.35
2022-09-20T07:28:08.901Z,9.81
2022-09-20T07:30:35.463Z,9.63
2022-09-20T07:33:02.696Z,9.84
2022-09-20T07:35:29.941Z,9.72
2022-09-20T07:37:57.892Z,9.46
2022-09-20T07:40:26.885Z,9.58
2022-09-20T07:42:56.219Z,7.50
2022-09-20T07:45:23.961Z,9.43
2022-09-20T07:47:50.592Z,8.26
2022-09-20T07:50:17.322Z,9.33
2022-09-20T07:52:43.902Z,9.64
2022-09-20T07:55:10.518Z,9.61
2022-09-20T07:57:37.784Z,9.38
2022-09-20T08:00:07.958Z,9.05
2022-09-20T08:02:34.580Z,8.46
2022-09-20T08:05:01.331Z,9.61
2022-09-20T08:07:28.892Z,9.73
2022-09-20T08:09:55.492Z,9.44
2022-09-20T08:15:11.870Z,9.64
2022-09-20T08:17:40.389Z,9.26
2022-09-20T08:20:07.851Z,9.15
2022-09-20T08:22:34.886Z,9.76
2022-09-20T08:25:01.450Z,9.98
2022-09-20T08:27:28.135Z,9.92
2022-09-20T08:29:57.311Z,10.21
2022-09-20T08:32:23.874Z,10.49
2022-09-20T08:34:50.431Z,10.75
2022-09-20T08:37:17.155Z,10.99
2022-09-20T08:39:59.537Z,9.70
2022-09-20T08:42:37.847Z,11.15
2022-09-20T08:45:11.378Z,10.83
2022-09-20T08:47:58.504Z,11.26
2022-09-20T08:50:25.826Z,10.92
2022-09-20T08:53:00.146Z,11.24
2022-09-20T08:55:36.486Z,10.08
2022-09-20T08:58:08.193Z,11.53
2022-09-20T09:00:35.931Z,11.62
2022-09-20T09:03:07.454Z,11.22
2022-09-20T09:05:39.088Z,11.21
2022-09-20T09:08:17.274Z,11.24
2022-09-20T09:10:54.232Z,10.32
2022-09-20T09:13:40.028Z,11.18
2022-09-20T09:16:13.177Z,11.47
2022-09-20T09:18:41.397Z,11.36
2022-09-20T09:21:10.457Z,11.49
2022-09-20T09:24:31.652Z,11.76
2022-09-20T09:27:07.650Z,11.75
2022-09-20T09:29:35.054Z,10.96
2022-09-20T09:32:19.318Z,11.76
2022-09-20T09:34:45.957Z,10.33
2022-09-20T09:37:27.813Z,11.82
2022-09-20T09:40:16.784Z,12.28
2022-09-20T09:42:57.604Z,12.40
2022-09-20T09:45:40.957Z,12.35
2022-09-20T09:48:27.890Z,12.51
2022-09-20T09:51:09.737Z,12.51
2022-09-20T09:53:36.724Z,12.14
2022-09-20T09:56:14.314Z,12.27
2022-09-20T09:59:02.221Z,12.17
2022-09-20T10:02:06.636Z,11.86
2022-09-20T10:04:37.448Z,11.12
2022-09-20T10:07:14.266Z,11.07
2022-09-20T10:09:46.962Z,10.67
2022-09-20T10:12:20.786Z,9.70
2022-09-20T10:14:56.931Z,10.01
2022-09-20T10:17:51.057Z,9.72
2022-09-20T10:20:28.201Z,9.49
2022-09-20T10:24:01.465Z,9.32
2022-09-20T10:26:44.192Z,9.10
2022-09-20T10:29:15.811Z,8.98
2022-09-20T10:31:54.983Z,8.41
2022-09-20T10:34:30.506Z,8.87
2022-09-20T10:36:58.316Z,8.74
2022-09-20T10:39:33.875Z,8.82
2022-09-20T10:42:40.910Z,8.17
2022-09-20T10:45:55.974Z,8.87
2022-09-20T10:48:31.814Z,8.71
2022-09-20T10:51:21.466Z,8.70
2022-09-20T10:54:09.848Z,9.17
2022-09-20T10:56:37.802Z,9.21
2022-09-20T10:59:40.062Z,9.55
2022-09-20T11:02:31.338Z,9.70
2022-09-20T11:05:27.281Z,9.83
2022-09-20T11:08:10.541Z,9.13
2022-09-20T11:10:43.052Z,10.06
2022-09-20T11:13:29.843Z,10.11
2022-09-20T11:16:10.332Z,10.09
2022-09-20T11:18:41.524Z,10.11
2022-09-20T11:21:23.251Z,9.96
2022-09-20T11:23:55.189Z,9.78
2022-09-20T11:26:27.535Z,9.20
2022-09-20T11:28:56.144Z,9.52
2022-09-20T11:31:26.935Z,9.59
2022-09-20T11:34:03.569Z,9.31
2022-09-20T11:36:58.977Z,9.58
2022-09-20T11:39:40.275Z,9.05
2022-09-20T11:42:06.920Z,9.46
2022-09-20T11:44:33.528Z,9.77
2022-09-20T11:47:52.872Z,8.88
2022-09-20T11:50:36.314Z,9.69
2022-09-20T11:53:27.573Z,9.54
2022-09-20T11:56:06.321Z,9.98
2022-09-20T11:58:46.621Z,9.86
2022-09-20T12:01:13.286Z,9.56
2022-09-20T12:03:40.164Z,8.89
2022-09-20T12:06:08.417Z,10.36
2022-09-20T12:08:39.782Z,10.28
2022-09-20T12:11:13.769Z,10.14
2022-09-20T12:13:41.883Z,10.35
2022-09-20T12:16:16.048Z,10.76
2022-09-20T12:18:54.719Z,10.89
2022-09-20T12:21:21.872Z,10.68
2022-09-20T12:23:57.537Z,11.06
2022-09-20T12:26:27.092Z,11.05
2022-09-20T12:28:54.251Z,10.05
2022-09-20T12:31:31.780Z,11.10
2022-09-20T12:33:59.419Z,11.18
2022-09-20T12:36:36.398Z,11.07
2022-09-20T12:39:12.044Z,11.15
2022-09-20T12:42:01.407Z,11.13
2022-09-20T12:44:38.018Z,11.30
2022-09-20T12:47:10.594Z,11.34
2022-09-20T12:50:05.885Z,11.06
2022-09-20T12:52:50.707Z,11.30
2022-09-20T12:55:30.952Z,11.10
2022-09-20T12:58:02.208Z,11.28
2022-09-20T13:00:34.495Z,10.97
2022-09-20T13:03:01.157Z,10.75
2022-09-20T13:05:32.210Z,11.15
2022-09-20T13:08:22.426Z,11.11
2022-09-20T13:11:02.231Z,10.52
2022-09-20T13:13:32.120Z,10.95
2022-09-20T13:15:58.931Z,10.73
2022-09-20T13:18:26.572Z,10.97
2022-09-20T13:20:54.043Z,10.73
2022-09-20T13:23:24.879Z,10.56
2022-09-20T13:25:51.539Z,9.48
2022-09-20T13:28:49.669Z,10.60
2022-09-20T13:31:25.941Z,10.56
2022-09-20T13:33:52.631Z,10.94
2022-09-20T13:36:27.634Z,10.45
2022-09-20T13:38:55.406Z,10.98
2022-09-20T13:41:22.978Z,10.29
2022-09-20T13:43:50.155Z,10.42
2022-09-20T13:46:24.594Z,10.63
2022-09-20T13:49:22.197Z,11.04
2022-09-20T13:51:49.141Z,10.80
2022-09-20T13:54:28.941Z,11.01
2022-09-20T13:56:56.859Z,10.34
2022-09-20T13:59:23.642Z,10.79
2022-09-20T14:01:51.960Z,10.88
2022-09-20T14:04:22.867Z,10.75
2022-09-20T14:06:52.848Z,10.64
2022-09-20T14:09:28.783Z,10.19
2022-09-20T14:11:56.080Z,10.80
2022-09-20T14:14:23.376Z,10.90
2022-09-20T14:16:49.933Z,10.49
2022-09-20T14:19:18.548Z,10.62
2022-09-20T14:21:45.112Z,10.47
2022-09-20T14:24:14.637Z,10.76
2022-09-20T14:26:42.255Z,10.59
2022-09-20T14:29:39.951Z,10.65
2022-09-20T14:32:17.662Z,10.16
2022-09-20T14:34:51.621Z,10.14
2022-09-20T14:37:32.551Z,10.31
2022-09-20T14:40:16.056Z,10.07
2022-09-20T14:42:44.070Z,10.27
2022-09-20T14:45:40.331Z,10.22
2022-09-20T14:48:26.954Z,10.21
2022-09-20T14:51:26.103Z,9.60
2022-09-20T14:54:13.956Z,9.58
2022-09-20T14:56:49.371Z,9.85
2022-09-20T14:59:18.994Z,10.13
2022-09-20T15:02:03.534Z,9.99
2022-09-20T15:04:31.618Z,10.01
2022-09-20T15:07:01.435Z,9.99
2022-09-20T15:09:28.009Z,9.92
2022-09-20T15:12:01.352Z,10.35
2022-09-20T15:14:27.970Z,10.12
2022-09-20T15:16:54.574Z,10.13
2022-09-20T15:19:21.180Z,10.08
2022-09-20T15:21:51.846Z,9.88
2022-09-20T15:24:19.072Z,9.57
2022-09-20T15:26:45.722Z,9.89
2022-09-20T15:29:17.221Z,10.19
2022-09-20T15:31:45.027Z,8.38
2022-09-20T15:34:12.963Z,9.68
2022-09-20T15:36:40.510Z,10.12
2022-09-20T15:39:07.431Z,9.83
2022-09-20T15:41:34.711Z,9.73
2022-09-20T15:44:02.661Z,8.58
2022-09-20T15:46:29.315Z,8.57
2022-09-20T15:48:56.443Z,9.42
2022-09-20T15:51:23.121Z,9.82
2022-09-20T15:53:58.452Z,9.37
2022-09-20T15:56:27.482Z,9.91
2022-09-20T15:59:01.517Z,9.69
2022-09-20T16:01:41.863Z,9.16
2022-09-20T16:04:08.783Z,9.98
2022-09-20T16:06:35.581Z,9.97
2022-09-20T16:09:02.406Z,9.29
2022-09-20T16:11:29.103Z,8.87
2022-09-20T16:13:56.809Z,9.44
2022-09-20T16:16:23.717Z,9.45
2022-09-20T16:19:09.007Z,9.52
2022-09-20T16:21:36.665Z,9.74
2022-09-20T16:24:03.403Z,9.22
2022-09-20T16:26:31.679Z,9.26
2022-09-20T16:28:58.419Z,8.88
2022-09-20T16:31:28.624Z,9.43
2022-09-20T16:33:55.251Z,8.80
2022-09-20T16:36:27.303Z,9.04
2022-09-20T16:38:55.925Z,8.16
2022-09-20T16:41:23.614Z,8.63
2022-09-20T16:43:52.240Z,8.60
2022-09-20T16:46:22.479Z,8.44
2022-09-20T16:48:53.761Z,8.44
2022-09-20T16:51:22.157Z,7.62
2022-09-20T16:53:48.922Z,8.65
2022-09-20T16:56:34.637Z,8.46
2022-09-20T16:59:02.044Z,8.04
2022-09-20T17:01:28.894Z,8.21
2022-09-20T17:03:55.556Z,8.13
2022-09-20T17:06:22.188Z,7.86
2022-09-20T17:08:54.562Z,8.39
2022-09-20T17:11:26.434Z,7.83
2022-09-20T17:13:53.863Z,7.91
2022-09-20T17:16:25.609Z,7.60
2022-09-20T17:18:58.203Z,6.77
2022-09-20T17:21:25.257Z,7.51
2022-09-20T17:23:55.231Z,7.76
2022-09-20T17:26:32.053Z,7.54
2022-09-20T17:28:59.245Z,7.91
2022-09-20T17:31:34.114Z,7.91
2022-09-20T17:34:02.238Z,7.49
2022-09-20T17:36:30.162Z,5.99
2022-09-20T17:39:02.970Z,7.73
2022-09-20T17:41:30.367Z,7.57
2022-09-20T17:43:58.689Z,7.79
2022-09-20T17:46:26.425Z,8.03
2022-09-20T17:48:55.616Z,6.09
2022-09-20T17:51:29.870Z,7.60
2022-09-20T17:53:56.503Z,7.83
2022-09-20T17:56:28.686Z,6.47
2022-09-20T17:58:56.885Z,6.53
2022-09-20T18:01:23.757Z,7.94
2022-09-20T18:03:51.504Z,6.52
2022-09-20T18:06:29.651Z,7.43
2022-09-20T18:09:03.641Z,7.42
2022-09-20T18:11:35.170Z,7.65
2022-09-20T18:14:02.294Z,7.45
2022-09-20T18:16:30.841Z,7.49
2022-09-20T18:18:59.345Z,7.55
2022-09-20T18:21:26.832Z,7.16
2022-09-20T18:23:53.452Z,7.27
2022-09-20T18:26:24.439Z,7.57
2022-09-20T18:29:18.299Z,7.69
2022-09-20T18:31:49.801Z,6.94
2022-09-20T18:34:23.976Z,7.31
2022-09-20T18:36:54.781Z,7.18
2022-09-20T18:39:28.507Z,7.71
2022-09-20T18:41:55.241Z,7.46
2022-09-20T18:44:22.305Z,7.15
2022-09-20T18:46:49.045Z,7.78
2022-09-20T18:49:17.073Z,7.49
2022-09-20T18:51:44.107Z,7.16
2022-09-20T18:54:11.115Z,6.51
2022-09-20T18:56:41.876Z,6.55
2022-09-20T18:59:15.672Z,7.89
2022-09-20T19:01:48.263Z,7.92
2022-09-20T19:04:39.650Z,7.95
2022-09-20T19:07:12.241Z,7.96
2022-09-20T19:09:56.957Z,8.00
2022-09-20T19:12:26.189Z,7.49
2022-09-20T19:15:30.530Z,8.03
2022-09-20T19:18:22.930Z,7.54
2022-09-20T19:21:14.971Z,7.95
2022-09-20T19:23:45.644Z,7.27
2022-09-20T19:26:29.084Z,7.36
2022-09-20T19:29:00.155Z,7.52
2022-09-20T19:31:31.878Z,7.61
2022-09-20T19:34:00.409Z,7.53
2022-09-20T19:36:54.827Z,7.59
2022-09-20T19:39:33.290Z,7.78
2022-09-20T19:42:36.301Z,7.77
2022-09-20T19:45:06.958Z,7.74
2022-09-20T19:47:45.751Z,7.73
2022-09-20T19:50:38.904Z,7.64
2022-09-20T19:53:05.802Z,6.92
2022-09-20T19:55:33.019Z,7.33
2022-09-20T19:57:59.946Z,7.21
2022-09-20T20:00:27.908Z,7.05
2022-09-20T20:02:55.385Z,7.31
2022-09-20T20:05:25.735Z,6.47
2022-09-20T20:08:14.031Z,6.21
2022-09-20T20:10:57.209Z,6.68
2022-09-20T20:14:07.138Z,5.61
2022-09-20T20:16:54.958Z,6.65
2022-09-20T20:19:42.887Z,6.97
2022-09-20T20:22:37.695Z,6.75
2022-09-20T20:25:04.745Z,6.29
2022-09-20T20:27:32.566Z,6.80
2022-09-20T20:29:59.141Z,5.46
2022-09-20T20:32:25.917Z,6.17
2022-09-20T20:34:52.472Z,6.97
2022-09-20T20:37:19.066Z,6.23
2022-09-20T20:39:45.859Z,6.58
2022-09-20T20:42:12.829Z,6.83
2022-09-20T20:44:40.091Z,6.68
2022-09-20T20:47:06.871Z,6.99
2022-09-20T20:49:33.414Z,7.02
2022-09-20T20:52:04.748Z,7.01
2022-09-20T20:54:32.277Z,7.08
2022-09-20T20:56:59.480Z,7.13
2022-09-20T20:59:26.448Z,6.41
2022-09-20T21:01:53.090Z,6.66
2022-09-20T21:04:20.033Z,6.92
2022-09-20T21:06:46.708Z,7.16
2022-09-20T21:09:13.567Z,7.05
2022-09-20T21:11:44.227Z,7.15
2022-09-20T21:14:11.960Z,7.05
2022-09-20T21:16:42.512Z,6.97
2022-09-20T21:19:10.304Z,7.18
2022-09-20T21:21:38.767Z,7.24
2022-09-20T21:24:09.567Z,7.32
2022-09-20T21:26:37.030Z,7.15
2022-09-20T21:29:08.125Z,6.52
2022-09-20T21:31:36.331Z,7.07
2022-09-20T21:34:09.438Z,6.82
2022-09-20T21:36:38.009Z,6.75
2022-09-20T21:39:05.178Z,7.06
2022-09-20T21:41:32.986Z,7.29
2022-09-20T21:44:02.236Z,7.28
2022-09-20T21:46:37.163Z,6.64
2022-09-20T21:49:04.486Z,7.22
2022-09-20T21:51:31.318Z,7.08
2022-09-20T21:53:59.459Z,6.31
2022-09-20T21:56:27.546Z,7.14
2022-09-20T21:58:54.169Z,6.30
2022-09-20T22:01:28.082Z,6.46
2022-09-20T22:03:57.449Z,6.58
2022-09-20T22:06:25.973Z,6.79
2022-09-20T22:08:53.326Z,7.28
2022-09-20T22:11:20.865Z,6.22
2022-09-20T22:13:48.650Z,7.22
2022-09-20T22:16:17.481Z,6.85
2022-09-20T22:18:44.143Z,7.05
2022-09-20T22:21:19.007Z,6.95
2022-09-20T22:23:47.999Z,7.13
2022-09-20T22:26:24.590Z,6.93
2022-09-20T22:28:51.781Z,6.66
2022-09-20T22:31:20.242Z,7.04
2022-09-20T22:33:48.389Z,5.94
2022-09-20T22:36:16.610Z,7.04
2022-09-20T22:38:43.664Z,6.83
2022-09-20T22:41:10.499Z,6.94
2022-09-20T22:43:37.374Z,7.05
2022-09-20T22:46:09.054Z,6.54
2022-09-20T22:48:35.880Z,6.81
2022-09-20T22:51:19.289Z,7.00
2022-09-20T22:53:46.299Z,7.03
2022-09-20T22:56:17.774Z,6.80
2022-09-20T22:58:46.066Z,6.20
2022-09-20T23:01:23.025Z,6.87
2022-09-20T23:04:00.304Z,6.98
2022-09-20T23:06:28.635Z,7.05
2022-09-20T23:08:59.708Z,6.93
2022-09-20T23:11:26.607Z,6.89
2022-09-20T23:13:55.002Z,7.09
2022-09-20T23:16:23.450Z,6.68
2022-09-20T23:18:50.791Z,7.14
2022-09-20T23:21:17.492Z,7.11
2022-09-20T23:23:44.750Z,6.62
2022-09-20T23:26:12.899Z,7.19
2022-09-20T23:28:41.154Z,6.91
2022-09-20T23:31:09.388Z,7.24
2022-09-20T23:33:36.029Z,6.78
2022-09-20T23:36:09.314Z,7.13
2022-09-20T23:38:38.940Z,7.20
2022-09-20T23:41:06.733Z,7.14
2022-09-20T23:43:33.937Z,6.90
2022-09-20T23:46:00.538Z,7.31
2022-09-20T23:48:27.157Z,7.15
2022-09-20T23:50:53.780Z,7.20
2022-09-20T23:53:20.459Z,7.01
2022-09-20T23:55:47.026Z,6.59
2022-09-20T23:58:13.731Z,6.96
